createdAt,value
2018-12-04T00:00:47.231Z,978.21
2018-12-04T00:01:47.376Z,978.29
2018-12-04T00:02:47.500Z,978.27
2018-12-04T00:03:47.632Z,978.25
2018-12-04T00:04:47.847Z,978.27
2018-12-04T00:05:47.854Z,978.29
2018-12-04T00:06:47.982Z,978.22
2018-12-04T00:07:48.113Z,978.23
2018-12-04T00:08:48.252Z,978.20
2018-12-04T00:09:48.382Z,978.19
2018-12-04T00:10:48.517Z,978.30
2018-12-04T00:11:48.645Z,978.26
2018-12-04T00:12:48.777Z,978.32
2018-12-04T00:13:48.908Z,978.32
2018-12-04T00:14:49.038Z,978.42
2018-12-04T00:15:49.166Z,978.49
2018-12-04T00:16:49.295Z,978.41
2018-12-04T00:17:49.428Z,978.39
2018-12-04T00:18:49.612Z,978.44
2018-12-04T00:19:49.803Z,978.42
2018-12-04T00:20:49.941Z,978.60
2018-12-04T00:21:50.071Z,978.43
2018-12-04T00:22:50.202Z,978.45
2018-12-04T00:23:50.336Z,978.46
2018-12-04T00:24:50.468Z,978.46
2018-12-04T00:25:50.600Z,978.46
2018-12-04T00:26:50.737Z,978.46
2018-12-04T00:27:50.876Z,978.43
2018-12-04T00:28:51.013Z,978.47
2018-12-04T00:29:51.147Z,978.46
2018-12-04T00:30:51.281Z,978.50
2018-12-04T00:31:51.425Z,978.44
2018-12-04T00:32:51.544Z,978.51
2018-12-04T00:33:51.680Z,978.47
2018-12-04T00:34:51.809Z,978.55
2018-12-04T00:35:51.949Z,978.51
2018-12-04T00:36:52.084Z,978.56
2018-12-04T00:37:52.221Z,978.49
2018-12-04T00:38:52.356Z,978.54
2018-12-04T00:39:52.487Z,978.56
2018-12-04T00:40:52.622Z,978.52
2018-12-04T00:41:52.749Z,978.59
2018-12-04T00:42:52.874Z,978.56
2018-12-04T00:43:53.011Z,978.57
2018-12-04T00:44:53.150Z,978.62
2018-12-04T00:45:53.272Z,978.67
2018-12-04T00:46:53.398Z,978.66
2018-12-04T00:47:53.544Z,978.69
2018-12-04T00:48:53.669Z,978.70
2018-12-04T00:49:53.806Z,978.76
2018-12-04T00:50:53.942Z,978.67
2018-12-04T00:51:54.073Z,978.65
2018-12-04T00:52:54.206Z,978.79
2018-12-04T00:53:54.345Z,978.87
2018-12-04T00:54:54.470Z,978.73
2018-12-04T00:55:54.604Z,978.74
2018-12-04T00:56:54.738Z,978.83
2018-12-04T00:57:54.867Z,978.86
2018-12-04T00:58:55.001Z,978.75
2018-12-04T00:59:55.136Z,978.79
2018-12-04T01:00:55.295Z,978.81
2018-12-04T01:01:55.403Z,978.96
2018-12-04T01:02:55.539Z,978.98
2018-12-04T01:03:55.673Z,978.96
2018-12-04T01:04:55.800Z,978.97
2018-12-04T01:05:55.938Z,978.94
2018-12-04T01:06:56.072Z,978.94
2018-12-04T01:07:56.202Z,978.97
2018-12-04T01:08:56.332Z,979.09
2018-12-04T01:09:56.493Z,979.02
2018-12-04T01:10:56.588Z,979.03
2018-12-04T01:11:56.725Z,979.12
2018-12-04T01:12:56.850Z,979.13
2018-12-04T01:13:56.980Z,979.13
2018-12-04T01:14:57.114Z,979.11
2018-12-04T01:15:57.250Z,979.15
2018-12-04T01:16:57.387Z,979.18
2018-12-04T01:17:57.531Z,979.25
2018-12-04T01:18:57.707Z,979.20
2018-12-04T01:19:57.816Z,979.20
2018-12-04T01:20:57.946Z,979.28
2018-12-04T01:21:58.109Z,979.22
2018-12-04T01:22:59.616Z,979.31
2018-12-04T01:23:58.368Z,979.27
2018-12-04T01:24:58.503Z,979.25
2018-12-04T01:26:58.771Z,979.33
2018-12-04T01:27:58.905Z,979.38
2018-12-04T01:28:59.042Z,979.41
2018-12-04T01:29:59.198Z,979.34
2018-12-04T01:31:14.010Z,979.41
2018-12-04T01:31:59.539Z,979.45
2018-12-04T01:33:06.703Z,979.46
2018-12-04T01:33:59.730Z,979.47
2018-12-04T01:34:59.866Z,979.56
2018-12-04T01:36:00.028Z,979.51
2018-12-04T01:37:00.159Z,979.52
2018-12-04T01:38:00.289Z,979.61
2018-12-04T01:39:00.416Z,979.61
2018-12-04T01:40:00.578Z,979.68
2018-12-04T01:41:15.635Z,979.69
2018-12-04T01:42:00.898Z,979.66
2018-12-04T01:43:01.030Z,979.78
2018-12-04T01:44:01.156Z,979.68
2018-12-04T01:45:01.318Z,979.77
2018-12-04T01:46:03.190Z,979.79
2018-12-04T01:47:01.579Z,979.78
2018-12-04T01:48:01.731Z,979.77
2018-12-04T01:49:08.406Z,979.72
2018-12-04T01:50:02.036Z,979.82
2018-12-04T01:51:02.173Z,979.77
2018-12-04T01:52:02.313Z,979.82
2018-12-04T01:53:02.494Z,979.83
2018-12-04T01:54:02.629Z,979.77
2018-12-04T01:55:02.758Z,979.78
2018-12-04T01:56:02.895Z,979.90
2018-12-04T01:57:03.021Z,979.85
2018-12-04T01:58:03.152Z,979.82
2018-12-04T01:59:03.299Z,979.83
2018-12-04T02:00:03.519Z,979.84
2018-12-04T02:01:03.586Z,979.85
2018-12-04T02:02:03.737Z,979.82
2018-12-04T02:03:03.907Z,979.88
2018-12-04T02:04:04.049Z,979.92
2018-12-04T02:05:04.301Z,979.93
2018-12-04T02:06:04.303Z,979.94
2018-12-04T02:07:04.452Z,979.98
2018-12-04T02:08:11.267Z,980.01
2018-12-04T02:09:04.646Z,980.05
2018-12-04T02:10:04.779Z,980.07
2018-12-04T02:11:04.910Z,980.11
2018-12-04T02:12:05.053Z,980.09
2018-12-04T02:13:05.184Z,980.12
2018-12-04T02:14:05.314Z,980.15
2018-12-04T02:15:05.442Z,980.16
2018-12-04T02:16:05.577Z,980.18
2018-12-04T02:17:05.713Z,980.20
2018-12-04T02:18:05.845Z,980.23
2018-12-04T02:19:05.976Z,980.25
2018-12-04T02:20:06.109Z,980.29
2018-12-04T02:21:06.258Z,980.29
2018-12-04T02:22:06.387Z,980.31
2018-12-04T02:23:06.521Z,980.34
2018-12-04T02:24:06.648Z,980.33
2018-12-04T02:25:06.785Z,980.33
2018-12-04T02:26:06.913Z,980.37
2018-12-04T02:27:07.050Z,980.36
2018-12-04T02:28:07.186Z,980.37
2018-12-04T02:29:07.322Z,980.36
2018-12-04T02:30:22.285Z,980.39
2018-12-04T02:31:07.528Z,980.41
2018-12-04T02:32:07.663Z,980.45
2018-12-04T02:33:07.797Z,980.51
2018-12-04T02:34:07.928Z,980.48
2018-12-04T02:35:08.062Z,980.53
2018-12-04T02:36:08.202Z,980.50
2018-12-04T02:37:08.327Z,980.53
2018-12-04T02:38:08.464Z,980.54
2018-12-04T02:39:08.596Z,980.53
2018-12-04T02:40:08.726Z,980.56
2018-12-04T02:41:08.861Z,980.58
2018-12-04T02:42:08.997Z,980.60
2018-12-04T02:43:09.143Z,980.64
2018-12-04T02:44:09.275Z,980.61
2018-12-04T02:45:09.406Z,980.66
2018-12-04T02:46:09.534Z,980.67
2018-12-04T02:47:09.670Z,980.69
2018-12-04T02:48:09.804Z,980.71
2018-12-04T02:49:09.938Z,980.75
2018-12-04T02:50:10.073Z,980.75
2018-12-04T02:51:10.209Z,980.79
2018-12-04T02:52:10.341Z,980.78
2018-12-04T02:53:10.471Z,980.82
2018-12-04T02:54:10.612Z,980.87
2018-12-04T02:55:10.735Z,980.89
2018-12-04T02:56:10.868Z,980.94
2018-12-04T02:57:11.006Z,981.00
2018-12-04T02:58:11.134Z,981.06
2018-12-04T02:59:11.276Z,981.10
2018-12-04T03:00:11.416Z,981.17
2018-12-04T03:01:11.541Z,981.21
2018-12-04T03:02:11.680Z,981.23
2018-12-04T03:03:11.813Z,981.25
2018-12-04T03:04:11.956Z,981.28
2018-12-04T03:05:12.083Z,981.33
2018-12-04T03:06:12.212Z,981.33
2018-12-04T03:07:12.417Z,981.40
2018-12-04T03:08:12.423Z,981.41
2018-12-04T03:09:12.561Z,981.48
2018-12-04T03:10:12.693Z,981.51
2018-12-04T03:11:12.828Z,981.50
2018-12-04T03:12:12.964Z,981.50
2018-12-04T03:13:13.093Z,981.51
2018-12-04T03:14:13.223Z,981.57
2018-12-04T03:15:13.356Z,981.62
2018-12-04T03:16:13.494Z,981.61
2018-12-04T03:17:13.624Z,981.63
2018-12-04T03:18:13.757Z,981.67
2018-12-04T03:19:13.894Z,981.70
2018-12-04T03:20:14.020Z,981.74
2018-12-04T03:21:14.153Z,981.75
2018-12-04T03:22:14.285Z,981.78
2018-12-04T03:23:14.418Z,981.87
2018-12-04T03:24:14.558Z,981.99
2018-12-04T03:25:14.733Z,982.10
2018-12-04T03:26:14.862Z,982.02
2018-12-04T03:27:15.002Z,982.18
2018-12-04T03:28:15.128Z,982.25
2018-12-04T03:29:15.261Z,982.23
2018-12-04T03:30:15.415Z,982.33
2018-12-04T03:31:15.943Z,982.34
2018-12-04T03:32:15.708Z,982.44
2018-12-04T03:33:16.760Z,982.45
2018-12-04T03:34:16.078Z,982.47
2018-12-04T03:35:16.082Z,982.47
2018-12-04T03:36:16.220Z,982.60
2018-12-04T03:37:16.358Z,982.72
2018-12-04T03:38:16.491Z,982.66
2018-12-04T03:39:16.632Z,982.72
2018-12-04T03:40:16.755Z,982.72
2018-12-04T03:41:16.884Z,982.74
2018-12-04T03:42:17.033Z,982.74
2018-12-04T03:43:17.167Z,982.82
2018-12-04T03:44:17.300Z,982.84
2018-12-04T03:45:17.434Z,982.87
2018-12-04T03:46:17.572Z,982.88
2018-12-04T03:47:17.702Z,982.92
2018-12-04T03:48:17.837Z,982.99
2018-12-04T03:49:17.965Z,983.02
2018-12-04T03:50:18.101Z,983.02
2018-12-04T03:51:18.234Z,983.16
2018-12-04T03:52:18.365Z,983.19
2018-12-04T03:53:18.504Z,983.17
2018-12-04T03:54:18.630Z,983.24
2018-12-04T03:55:18.775Z,983.26
2018-12-04T03:56:18.908Z,983.33
2018-12-04T03:57:19.041Z,983.32
2018-12-04T03:58:19.175Z,983.39
2018-12-04T03:59:19.309Z,983.42
2018-12-04T04:00:19.441Z,983.52
2018-12-04T04:01:19.582Z,983.54
2018-12-04T04:02:19.718Z,983.56
2018-12-04T04:03:19.851Z,983.53
2018-12-04T04:04:19.982Z,983.50
2018-12-04T04:05:20.125Z,983.51
2018-12-04T04:06:20.254Z,983.58
2018-12-04T04:07:20.384Z,983.65
2018-12-04T04:08:20.532Z,983.67
2018-12-04T04:09:20.666Z,983.71
2018-12-04T04:10:20.799Z,983.71
2018-12-04T04:11:20.934Z,983.77
2018-12-04T04:12:21.069Z,983.75
2018-12-04T04:13:21.201Z,983.81
2018-12-04T04:14:21.332Z,983.72
2018-12-04T04:15:21.459Z,983.76
2018-12-04T04:16:21.609Z,983.81
2018-12-04T04:17:21.737Z,983.80
2018-12-04T04:18:21.868Z,983.87
2018-12-04T04:19:22.001Z,983.94
2018-12-04T04:20:22.132Z,983.95
2018-12-04T04:21:22.264Z,983.98
2018-12-04T04:22:23.287Z,983.97
2018-12-04T04:23:22.493Z,983.99
2018-12-04T04:24:22.629Z,984.05
2018-12-04T04:25:22.763Z,984.07
2018-12-04T04:26:22.893Z,984.15
2018-12-04T04:27:23.021Z,984.17
2018-12-04T04:28:23.158Z,984.19
2018-12-04T04:29:23.291Z,984.20
2018-12-04T04:30:23.422Z,984.23
2018-12-04T04:31:23.557Z,984.22
2018-12-04T04:32:23.687Z,984.23
2018-12-04T04:33:23.818Z,984.25
2018-12-04T04:34:23.952Z,984.25
2018-12-04T04:35:24.090Z,984.28
2018-12-04T04:36:24.224Z,984.31
2018-12-04T04:37:24.440Z,984.32
2018-12-04T04:38:24.493Z,984.32
2018-12-04T04:39:24.620Z,984.33
2018-12-04T04:40:24.755Z,984.33
2018-12-04T04:41:24.891Z,984.32
2018-12-04T04:42:25.026Z,984.34
2018-12-04T04:43:25.159Z,984.36
2018-12-04T04:44:25.290Z,984.37
2018-12-04T04:45:25.420Z,984.38
2018-12-04T04:46:25.550Z,984.39
2018-12-04T04:47:25.698Z,984.41
2018-12-04T04:48:25.841Z,984.44
2018-12-04T04:49:25.963Z,984.48
2018-12-04T04:50:26.106Z,984.53
2018-12-04T04:51:26.241Z,984.55
2018-12-04T04:52:26.372Z,984.54
2018-12-04T04:53:26.506Z,984.66
2018-12-04T04:54:26.635Z,984.65
2018-12-04T04:55:26.768Z,984.67
2018-12-04T04:56:26.901Z,984.72
2018-12-04T04:57:27.029Z,984.74
2018-12-04T04:58:27.166Z,984.74
2018-12-04T04:59:27.295Z,984.79
2018-12-04T05:00:27.428Z,984.81
2018-12-04T05:01:27.565Z,984.80
2018-12-04T05:02:27.704Z,984.85
2018-12-04T05:03:27.831Z,984.79
2018-12-04T05:04:27.963Z,984.85
2018-12-04T05:05:28.154Z,984.85
2018-12-04T05:06:28.284Z,984.87
2018-12-04T05:07:28.425Z,984.89
2018-12-04T05:08:28.559Z,984.89
2018-12-04T05:09:28.689Z,984.91
2018-12-04T05:10:28.817Z,984.97
2018-12-04T05:11:28.977Z,985.00
2018-12-04T05:12:29.084Z,985.04
2018-12-04T05:13:29.222Z,985.04
2018-12-04T05:14:29.357Z,985.06
2018-12-04T05:15:29.490Z,985.07
2018-12-04T05:16:29.619Z,985.06
2018-12-04T05:17:29.750Z,985.08
2018-12-04T05:18:29.896Z,985.09
2018-12-04T05:19:30.018Z,985.09
2018-12-04T05:20:30.149Z,985.07
2018-12-04T05:21:30.287Z,985.09
2018-12-04T05:22:30.422Z,985.13
2018-12-04T05:23:30.557Z,985.18
2018-12-04T05:24:30.695Z,985.18
2018-12-04T05:25:30.825Z,985.26
2018-12-04T05:26:30.957Z,985.25
2018-12-04T05:27:31.094Z,985.32
2018-12-04T05:28:31.226Z,985.28
2018-12-04T05:29:31.362Z,985.34
2018-12-04T05:30:31.491Z,985.34
2018-12-04T05:31:31.627Z,985.33
2018-12-04T05:32:31.758Z,985.41
2018-12-04T05:33:31.894Z,985.40
2018-12-04T05:34:32.029Z,985.45
2018-12-04T05:35:32.160Z,985.45
2018-12-04T05:36:32.291Z,985.48
2018-12-04T05:37:32.421Z,985.54
2018-12-04T05:38:32.556Z,985.57
2018-12-04T05:39:32.689Z,985.57
2018-12-04T05:40:32.825Z,985.61
2018-12-04T05:41:32.954Z,985.65
2018-12-04T05:42:33.091Z,985.68
2018-12-04T05:43:33.220Z,985.70
2018-12-04T05:44:33.358Z,985.73
2018-12-04T05:45:33.485Z,985.76
2018-12-04T05:46:33.622Z,985.77
2018-12-04T05:47:33.759Z,985.76
2018-12-04T05:48:33.888Z,985.78
2018-12-04T05:49:34.019Z,985.77
2018-12-04T05:50:34.155Z,985.78
2018-12-04T05:51:34.292Z,985.74
2018-12-04T05:52:34.424Z,985.79
2018-12-04T05:53:34.563Z,985.79
2018-12-04T05:54:34.698Z,985.85
2018-12-04T05:55:34.823Z,985.88
2018-12-04T05:56:34.951Z,985.96
2018-12-04T05:57:35.087Z,985.98
2018-12-04T05:58:35.222Z,986.00
2018-12-04T05:59:35.350Z,986.03
2018-12-04T06:00:35.479Z,986.03
2018-12-04T06:01:35.623Z,986.00
2018-12-04T06:02:35.752Z,986.08
2018-12-04T06:03:35.883Z,986.11
2018-12-04T06:04:36.015Z,986.09
2018-12-04T06:05:36.158Z,986.16
2018-12-04T06:06:44.493Z,986.17
2018-12-04T06:07:36.372Z,986.24
2018-12-04T06:08:36.507Z,986.28
2018-12-04T06:09:36.639Z,986.32
2018-12-04T06:10:36.772Z,986.28
2018-12-04T06:11:36.904Z,986.23
2018-12-04T06:12:37.038Z,986.28
2018-12-04T06:13:37.183Z,986.39
2018-12-04T06:14:37.315Z,986.41
2018-12-04T06:15:37.443Z,986.46
2018-12-04T06:16:37.578Z,986.48
2018-12-04T06:17:37.743Z,986.51
2018-12-04T06:18:37.875Z,986.50
2018-12-04T06:19:38.008Z,986.55
2018-12-04T06:20:38.153Z,986.56
2018-12-04T06:21:38.286Z,986.56
2018-12-04T06:22:38.564Z,986.56
2018-12-04T06:23:38.622Z,986.60
2018-12-04T06:24:38.629Z,986.58
2018-12-04T06:25:38.763Z,986.63
2018-12-04T06:26:38.895Z,986.66
2018-12-04T06:27:39.027Z,986.73
2018-12-04T06:28:39.163Z,986.75
2018-12-04T06:29:39.305Z,986.82
2018-12-04T06:30:39.445Z,986.84
2018-12-04T06:31:39.572Z,986.81
2018-12-04T06:32:39.710Z,986.88
2018-12-04T06:33:39.839Z,986.93
2018-12-04T06:34:39.994Z,987.00
2018-12-04T06:35:40.127Z,987.01
2018-12-04T06:36:40.262Z,987.00
2018-12-04T06:37:40.409Z,987.09
2018-12-04T06:38:40.534Z,987.09
2018-12-04T06:39:40.677Z,987.10
2018-12-04T06:40:40.797Z,987.12
2018-12-04T06:41:40.929Z,987.12
2018-12-04T06:42:41.063Z,987.17
2018-12-04T06:43:41.201Z,987.21
2018-12-04T06:44:46.636Z,987.22
2018-12-04T06:45:41.466Z,987.27
2018-12-04T06:46:41.608Z,987.26
2018-12-04T06:47:41.758Z,987.28
2018-12-04T06:49:05.820Z,987.27
2018-12-04T06:49:42.881Z,987.35
2018-12-04T06:50:42.163Z,987.30
2018-12-04T06:51:42.297Z,987.33
2018-12-04T06:52:42.430Z,987.33
2018-12-04T06:53:42.561Z,987.38
2018-12-04T06:54:42.692Z,987.38
2018-12-04T06:55:42.842Z,987.42
2018-12-04T06:56:42.977Z,987.41
2018-12-04T06:57:43.112Z,987.47
2018-12-04T06:58:43.245Z,987.52
2018-12-04T06:59:43.381Z,987.56
2018-12-04T07:00:43.514Z,987.61
2018-12-04T07:01:43.653Z,987.62
2018-12-04T07:02:43.792Z,987.62
2018-12-04T07:03:43.926Z,987.65
2018-12-04T07:04:44.067Z,987.65
2018-12-04T07:05:44.200Z,987.68
2018-12-04T07:06:44.373Z,987.73
2018-12-04T07:07:44.509Z,987.75
2018-12-04T07:08:44.702Z,987.79
2018-12-04T07:09:44.778Z,987.85
2018-12-04T07:10:44.914Z,987.91
2018-12-04T07:11:45.045Z,987.98
2018-12-04T07:12:45.183Z,988.03
2018-12-04T07:13:45.314Z,988.06
2018-12-04T07:14:45.442Z,988.08
2018-12-04T07:15:45.579Z,988.11
2018-12-04T07:16:45.709Z,988.14
2018-12-04T07:17:45.836Z,988.23
2018-12-04T07:18:45.970Z,988.20
2018-12-04T07:19:46.105Z,988.27
2018-12-04T07:20:46.232Z,988.30
2018-12-04T07:21:46.371Z,988.29
2018-12-04T07:22:46.503Z,988.36
2018-12-04T07:23:46.635Z,988.40
2018-12-04T07:24:46.771Z,988.38
2018-12-04T07:25:46.901Z,988.44
2018-12-04T07:26:47.027Z,988.47
2018-12-04T07:27:47.159Z,988.49
2018-12-04T07:28:47.293Z,988.54
2018-12-04T07:29:47.420Z,988.54
2018-12-04T07:30:47.555Z,988.56
2018-12-04T07:31:47.689Z,988.62
2018-12-04T07:32:47.841Z,988.65
2018-12-04T07:33:47.980Z,988.70
2018-12-04T07:34:48.106Z,988.71
2018-12-04T07:35:48.253Z,988.70
2018-12-04T07:36:48.382Z,988.74
2018-12-04T07:37:48.516Z,988.77
2018-12-04T07:38:48.663Z,988.80
2018-12-04T07:39:48.806Z,988.81
2018-12-04T07:40:48.939Z,988.78
2018-12-04T07:41:49.072Z,988.83
2018-12-04T07:42:49.203Z,988.85
2018-12-04T07:43:49.334Z,988.90
2018-12-04T07:44:49.467Z,988.90
2018-12-04T07:45:49.606Z,988.95
2018-12-04T07:46:49.739Z,988.95
2018-12-04T07:47:49.871Z,989.00
2018-12-04T07:48:50.002Z,989.03
2018-12-04T07:49:50.134Z,989.04
2018-12-04T07:50:50.264Z,989.07
2018-12-04T07:51:50.398Z,989.06
2018-12-04T07:52:50.531Z,989.10
2018-12-04T07:53:50.657Z,989.12
2018-12-04T07:54:50.792Z,989.15
2018-12-04T07:55:50.925Z,989.11
2018-12-04T07:56:51.055Z,989.13
2018-12-04T07:57:51.189Z,989.15
2018-12-04T07:58:51.325Z,989.15
2018-12-04T07:59:51.453Z,989.22
2018-12-04T08:00:51.586Z,989.25
2018-12-04T08:01:51.724Z,989.30
2018-12-04T08:02:51.854Z,989.35
2018-12-04T08:03:51.989Z,989.34
2018-12-04T08:04:52.121Z,989.37
2018-12-04T08:05:52.266Z,989.40
2018-12-04T08:06:52.406Z,989.39
2018-12-04T08:07:52.541Z,989.44
2018-12-04T08:08:52.673Z,989.44
2018-12-04T08:09:52.805Z,989.50
2018-12-04T08:10:52.940Z,989.52
2018-12-04T08:11:53.075Z,989.54
2018-12-04T08:12:53.206Z,989.60
2018-12-04T08:13:53.341Z,989.59
2018-12-04T08:14:53.470Z,989.67
2018-12-04T08:15:53.608Z,989.64
2018-12-04T08:16:53.737Z,989.69
2018-12-04T08:17:53.870Z,989.70
2018-12-04T08:18:54.006Z,989.70
2018-12-04T08:19:54.139Z,989.73
2018-12-04T08:20:54.275Z,989.70
2018-12-04T08:21:54.421Z,989.79
2018-12-04T08:22:54.555Z,989.77
2018-12-04T08:23:54.688Z,989.79
2018-12-04T08:24:54.837Z,989.83
2018-12-04T08:25:54.970Z,989.86
2018-12-04T08:26:55.103Z,989.89
2018-12-04T08:27:55.231Z,989.86
2018-12-04T08:28:55.358Z,989.94
2018-12-04T08:29:55.491Z,989.91
2018-12-04T08:30:55.624Z,989.98
2018-12-04T08:31:55.753Z,989.96
2018-12-04T08:32:55.896Z,989.96
2018-12-04T08:33:56.037Z,989.95
2018-12-04T08:34:56.168Z,989.95
2018-12-04T08:35:56.300Z,989.97
2018-12-04T08:36:56.440Z,990.02
2018-12-04T08:37:56.575Z,990.05
2018-12-04T08:38:56.709Z,990.01
2018-12-04T08:39:56.845Z,990.05
2018-12-04T08:40:56.976Z,990.08
2018-12-04T08:41:57.111Z,990.09
2018-12-04T08:42:57.247Z,990.13
2018-12-04T08:43:57.376Z,990.15
2018-12-04T08:44:57.510Z,990.19
2018-12-04T08:45:57.637Z,990.20
2018-12-04T08:46:57.773Z,990.24
2018-12-04T08:47:57.907Z,990.26
2018-12-04T08:48:58.047Z,990.25
2018-12-04T08:49:58.187Z,990.32
2018-12-04T08:50:58.333Z,990.36
2018-12-04T08:51:58.483Z,990.35
2018-12-04T08:52:58.617Z,990.37
2018-12-04T08:53:58.841Z,990.44
2018-12-04T08:54:58.851Z,990.42
2018-12-04T08:55:58.980Z,990.47
2018-12-04T08:56:59.114Z,990.49
2018-12-04T08:57:59.245Z,990.51
2018-12-04T08:58:59.383Z,990.60
2018-12-04T08:59:59.511Z,990.56
2018-12-04T09:00:59.645Z,990.58
2018-12-04T09:01:59.778Z,990.60
2018-12-04T09:02:59.917Z,990.66
2018-12-04T09:04:00.045Z,990.63
2018-12-04T09:05:00.186Z,990.64
2018-12-04T09:06:00.324Z,990.67
2018-12-04T09:07:00.536Z,990.70
2018-12-04T09:08:00.591Z,990.74
2018-12-04T09:09:00.721Z,990.72
2018-12-04T09:10:00.855Z,990.74
2018-12-04T09:11:00.991Z,990.81
2018-12-04T09:12:01.123Z,990.88
2018-12-04T09:13:01.261Z,990.92
2018-12-04T09:14:01.408Z,990.92
2018-12-04T09:15:01.536Z,990.95
2018-12-04T09:16:01.665Z,990.95
2018-12-04T09:17:01.798Z,990.97
2018-12-04T09:18:01.933Z,991.02
2018-12-04T09:19:02.065Z,991.04
2018-12-04T09:20:02.205Z,991.10
2018-12-04T09:21:02.342Z,991.16
2018-12-04T09:22:02.550Z,991.17
2018-12-04T09:23:02.634Z,991.15
2018-12-04T09:24:02.775Z,991.13
2018-12-04T09:25:02.883Z,991.17
2018-12-04T09:26:03.008Z,991.18
2018-12-04T09:27:05.604Z,991.21
2018-12-04T09:28:03.297Z,991.23
2018-12-04T09:29:03.436Z,991.27
2018-12-04T09:30:03.601Z,991.26
2018-12-04T09:31:03.681Z,991.25
2018-12-04T09:32:03.816Z,991.32
2018-12-04T09:33:03.949Z,991.30
2018-12-04T09:34:04.081Z,991.28
2018-12-04T09:35:04.215Z,991.24
2018-12-04T09:36:04.345Z,991.31
2018-12-04T09:37:04.486Z,991.31
2018-12-04T09:38:04.631Z,991.33
2018-12-04T09:39:04.764Z,991.36
2018-12-04T09:40:04.908Z,991.40
2018-12-04T09:41:05.035Z,991.34
2018-12-04T09:42:05.170Z,991.34
2018-12-04T09:43:05.298Z,991.41
2018-12-04T09:44:05.430Z,991.42
2018-12-04T09:45:05.563Z,991.39
2018-12-04T09:46:05.696Z,991.46
2018-12-04T09:47:05.829Z,991.49
2018-12-04T09:48:05.963Z,991.50
2018-12-04T09:49:06.099Z,991.54
2018-12-04T09:50:06.232Z,991.55
2018-12-04T09:51:06.364Z,991.56
2018-12-04T09:52:06.500Z,991.54
2018-12-04T09:53:06.633Z,991.56
2018-12-04T09:54:06.765Z,991.56
2018-12-04T09:55:06.901Z,991.60
2018-12-04T09:56:07.034Z,991.61
2018-12-04T09:57:07.169Z,991.64
2018-12-04T09:58:07.305Z,991.67
2018-12-04T09:59:07.457Z,991.66
2018-12-04T10:00:07.576Z,991.76
2018-12-04T10:01:07.719Z,991.75
2018-12-04T10:02:07.845Z,991.72
2018-12-04T10:03:07.979Z,991.77
2018-12-04T10:04:08.116Z,991.75
2018-12-04T10:05:08.247Z,991.74
2018-12-04T10:06:08.413Z,991.80
2018-12-04T10:08:40.872Z,991.84
2018-12-04T10:09:41.015Z,991.76
2018-12-04T10:10:41.143Z,991.82
2018-12-04T10:11:41.276Z,991.81
2018-12-04T10:12:41.461Z,991.84
2018-12-04T10:13:41.548Z,991.82
2018-12-04T10:14:41.676Z,991.83
2018-12-04T10:15:41.816Z,991.85
2018-12-04T10:16:41.942Z,991.92
2018-12-04T10:17:42.075Z,991.90
2018-12-04T10:18:47.493Z,991.90
2018-12-04T10:19:42.345Z,991.94
2018-12-04T10:20:42.477Z,991.96
2018-12-04T10:21:42.612Z,992.00
2018-12-04T10:22:42.743Z,992.03
2018-12-04T10:23:42.880Z,992.01
2018-12-04T10:24:43.007Z,991.98
2018-12-04T10:25:43.143Z,992.01
2018-12-04T10:26:43.281Z,992.00
2018-12-04T10:27:43.421Z,992.10
2018-12-04T10:28:43.555Z,992.09
2018-12-04T10:29:43.687Z,992.11
2018-12-04T10:30:43.822Z,992.09
2018-12-04T10:31:43.965Z,992.11
2018-12-04T10:32:44.095Z,992.18
2018-12-04T10:33:44.236Z,992.17
2018-12-04T10:34:44.373Z,992.18
2018-12-04T10:35:44.576Z,992.25
2018-12-04T10:36:44.585Z,992.22
2018-12-04T10:37:44.717Z,992.25
2018-12-04T10:38:44.853Z,992.25
2018-12-04T10:39:44.987Z,992.27
2018-12-04T10:40:45.119Z,992.27
2018-12-04T10:41:45.254Z,992.35
2018-12-04T10:42:45.390Z,992.34
2018-12-04T10:43:45.523Z,992.35
2018-12-04T10:44:45.655Z,992.34
2018-12-04T10:45:45.795Z,992.33
2018-12-04T10:46:45.927Z,992.40
2018-12-04T10:47:46.061Z,992.41
2018-12-04T10:48:46.192Z,992.42
2018-12-04T10:49:46.335Z,992.42
2018-12-04T10:50:46.470Z,992.40
2018-12-04T10:51:46.606Z,992.45
2018-12-04T10:52:46.750Z,992.63
2018-12-04T10:53:46.887Z,992.64
2018-12-04T10:54:47.023Z,992.48
2018-12-04T10:55:47.156Z,992.47
2018-12-04T10:56:47.334Z,992.48
2018-12-04T10:57:47.425Z,992.48
2018-12-04T10:58:47.566Z,992.47
2018-12-04T10:59:47.700Z,992.54
2018-12-04T11:00:47.839Z,992.54
2018-12-04T11:01:47.970Z,992.50
2018-12-04T11:02:48.125Z,992.56
2018-12-04T11:03:48.268Z,992.60
2018-12-04T11:04:48.405Z,992.56
2018-12-04T11:05:48.544Z,992.57
2018-12-04T11:06:48.678Z,992.67
2018-12-04T11:07:48.813Z,992.68
2018-12-04T11:08:48.950Z,992.61
2018-12-04T11:09:49.083Z,992.74
2018-12-04T11:10:49.234Z,992.71
2018-12-04T11:11:49.378Z,992.72
2018-12-04T11:12:49.503Z,992.76
2018-12-04T11:13:49.641Z,992.81
2018-12-04T11:14:49.778Z,992.70
2018-12-04T11:15:49.911Z,992.81
2018-12-04T11:16:50.058Z,992.72
2018-12-04T11:17:50.193Z,992.79
2018-12-04T11:18:50.327Z,992.81
2018-12-04T11:19:50.463Z,992.78
2018-12-04T11:20:50.605Z,992.79
2018-12-04T11:21:50.739Z,992.83
2018-12-04T11:22:50.876Z,992.78
2018-12-04T11:23:51.016Z,992.82
2018-12-04T11:24:51.154Z,992.88
2018-12-04T11:25:51.292Z,992.91
2018-12-04T11:26:51.429Z,992.94
2018-12-04T11:27:51.563Z,992.95
2018-12-04T11:28:51.702Z,992.95
2018-12-04T11:29:51.855Z,992.92
2018-12-04T11:30:51.987Z,993.00
2018-12-04T11:31:52.131Z,993.03
2018-12-04T11:32:52.266Z,993.01
2018-12-04T11:33:52.419Z,993.09
2018-12-04T11:34:52.555Z,993.07
2018-12-04T11:35:52.695Z,993.13
2018-12-04T11:36:52.846Z,993.14
2018-12-04T11:37:52.979Z,993.19
2018-12-04T11:38:53.120Z,993.15
2018-12-04T11:39:53.260Z,993.15
2018-12-04T11:40:53.405Z,993.17
2018-12-04T11:41:53.546Z,993.09
2018-12-04T11:42:53.687Z,993.18
2018-12-04T11:43:53.829Z,993.20
2018-12-04T11:44:53.967Z,993.16
2018-12-04T11:45:54.110Z,993.14
2018-12-04T11:46:54.250Z,993.17
2018-12-04T11:47:54.388Z,993.17
2018-12-04T11:48:54.535Z,993.17
2018-12-04T11:49:54.672Z,993.21
2018-12-04T11:51:00.044Z,993.27
2018-12-04T11:51:54.965Z,993.16
2018-12-04T11:52:55.106Z,993.15
2018-12-04T11:53:55.245Z,993.18
2018-12-04T11:54:55.387Z,993.22
2018-12-04T11:55:55.524Z,993.18
2018-12-04T11:56:55.661Z,993.20
2018-12-04T11:57:55.803Z,993.23
2018-12-04T11:58:55.952Z,993.21
2018-12-04T11:59:56.095Z,993.23
2018-12-04T12:00:56.235Z,993.20
2018-12-04T12:01:56.367Z,993.32
2018-12-04T12:02:56.513Z,993.33
2018-12-04T12:03:56.664Z,993.38
2018-12-04T12:04:56.800Z,993.36
2018-12-04T12:05:56.942Z,993.34
2018-12-04T12:06:57.087Z,993.36
2018-12-04T12:07:57.230Z,993.41
2018-12-04T12:08:57.371Z,993.38
2018-12-04T12:09:57.508Z,993.29
2018-12-04T12:10:57.649Z,993.33
2018-12-04T12:11:57.789Z,993.32
2018-12-04T12:12:57.928Z,993.34
2018-12-04T12:13:58.070Z,993.36
2018-12-04T12:14:58.208Z,993.40
2018-12-04T12:15:58.351Z,993.36
2018-12-04T12:16:58.487Z,993.44
2018-12-04T12:17:58.644Z,993.40
2018-12-04T12:18:58.782Z,993.41
2018-12-04T12:19:58.939Z,993.40
2018-12-04T12:20:59.079Z,993.39
2018-12-04T12:21:59.231Z,993.42
2018-12-04T12:22:59.371Z,993.43
2018-12-04T12:23:59.509Z,993.55
2018-12-04T12:24:59.664Z,993.60
2018-12-04T12:25:59.796Z,993.64
2018-12-04T12:26:59.926Z,993.65
2018-12-04T12:28:00.067Z,993.68
2018-12-04T12:29:00.203Z,993.59
2018-12-04T12:30:00.337Z,993.61
2018-12-04T12:31:00.478Z,993.61
2018-12-04T12:32:00.612Z,993.64
2018-12-04T12:33:00.755Z,993.66